createdAt,value
2023-06-05T00:03:41.208Z,75.83
2023-06-05T00:06:09.828Z,75.86
2023-06-05T00:08:38.102Z,75.89
2023-06-05T00:11:06.937Z,75.98
2023-06-05T00:13:35.438Z,76.08
2023-06-05T00:16:04.075Z,76.10
2023-06-05T00:18:33.121Z,76.08
2023-06-05T00:21:01.359Z,76.04
2023-06-05T00:23:29.569Z,76.05
2023-06-05T00:25:59.117Z,76.30
2023-06-05T00:28:27.347Z,76.33
2023-06-05T00:30:55.501Z,76.26
2023-06-05T00:33:23.766Z,76.13
2023-06-05T00:35:51.857Z,76.18
2023-06-05T00:38:19.980Z,76.06
2023-06-05T00:40:48.350Z,76.15
2023-06-05T00:43:17.665Z,76.06
2023-06-05T00:45:46.034Z,76.10
2023-06-05T00:48:15.192Z,76.09
2023-06-05T00:50:43.720Z,76.10
2023-06-05T00:53:13.257Z,76.06
2023-06-05T00:55:41.603Z,76.11
2023-06-05T00:58:11.019Z,76.01
2023-06-05T01:00:39.335Z,75.82
2023-06-05T01:03:08.307Z,76.11
2023-06-05T01:05:37.195Z,76.07
2023-06-05T01:08:06.574Z,76.05
2023-06-05T01:10:34.777Z,76.02
2023-06-05T01:13:13.599Z,76.01
2023-06-05T01:15:42.204Z,76.16
2023-06-05T01:18:10.987Z,76.04
2023-06-05T01:20:40.743Z,75.99
2023-06-05T01:23:12.265Z,76.09
2023-06-05T01:25:40.773Z,76.13
2023-06-05T01:28:17.145Z,76.25
2023-06-05T01:31:13.109Z,76.18
2023-06-05T01:33:58.485Z,76.16
2023-06-05T01:36:27.253Z,76.20
2023-06-05T01:38:57.766Z,76.35
2023-06-05T01:41:28.091Z,76.44
2023-06-05T01:43:56.898Z,76.22
2023-06-05T01:46:25.575Z,76.26
2023-06-05T01:48:54.045Z,76.26
2023-06-05T01:51:22.747Z,76.33
2023-06-05T01:53:50.927Z,76.29
2023-06-05T01:56:19.306Z,76.16
2023-06-05T01:58:48.597Z,76.34
2023-06-05T02:01:17.601Z,76.31
2023-06-05T02:03:46.573Z,76.35
2023-06-05T02:06:15.928Z,76.40
2023-06-05T02:08:44.584Z,76.43
2023-06-05T02:11:12.943Z,76.45
2023-06-05T02:13:41.587Z,76.52
2023-06-05T02:16:12.628Z,76.54
2023-06-05T02:18:41.435Z,76.71
2023-06-05T02:21:09.669Z,76.46
2023-06-05T02:23:38.609Z,76.44
2023-06-05T02:26:07.135Z,76.43
2023-06-05T02:28:35.384Z,76.54
2023-06-05T02:31:03.595Z,76.48
2023-06-05T02:33:31.812Z,76.32
2023-06-05T02:36:00.213Z,76.73
2023-06-05T02:38:28.653Z,76.82
2023-06-05T02:40:57.247Z,76.87
2023-06-05T02:43:25.408Z,76.99
2023-06-05T02:45:53.729Z,77.00
2023-06-05T02:48:22.252Z,77.18
2023-06-05T02:50:51.123Z,77.18
2023-06-05T02:53:20.432Z,77.20
2023-06-05T02:55:48.794Z,77.11
2023-06-05T02:58:17.152Z,77.06
2023-06-05T03:00:45.309Z,77.07
2023-06-05T03:03:14.225Z,77.01
2023-06-05T03:05:44.335Z,76.89
2023-06-05T03:08:12.461Z,76.89
2023-06-05T03:10:40.903Z,76.82
2023-06-05T03:13:09.067Z,76.98
2023-06-05T03:15:37.504Z,76.66
2023-06-05T03:18:05.954Z,76.62
2023-06-05T03:20:34.483Z,76.63
2023-06-05T03:23:02.877Z,76.68
2023-06-05T03:25:31.273Z,76.66
2023-06-05T03:27:59.592Z,76.50
2023-06-05T03:30:28.373Z,76.52
2023-06-05T03:32:56.954Z,76.59
2023-06-05T03:35:25.148Z,76.53
2023-06-05T03:37:53.553Z,76.57
2023-06-05T03:40:21.962Z,76.54
2023-06-05T03:42:50.096Z,76.66
2023-06-05T03:45:18.543Z,76.83
2023-06-05T03:47:46.892Z,76.83
2023-06-05T03:50:15.376Z,76.92
2023-06-05T03:52:43.836Z,76.89
2023-06-05T03:55:12.180Z,77.01
2023-06-05T03:57:40.545Z,76.94
2023-06-05T04:00:09.154Z,77.14
2023-06-05T04:02:38.952Z,77.15
2023-06-05T04:05:07.920Z,77.13
2023-06-05T04:07:36.708Z,77.19
2023-06-05T04:10:07.250Z,77.30
2023-06-05T04:12:35.552Z,77.43
2023-06-05T04:15:04.094Z,77.71
2023-06-05T04:17:32.275Z,77.58
2023-06-05T04:20:00.416Z,77.44
2023-06-05T04:22:28.716Z,77.50
2023-06-05T04:24:57.098Z,77.43
2023-06-05T04:27:25.285Z,77.35
2023-06-05T04:29:53.561Z,77.55
2023-06-05T04:32:22.079Z,77.32
2023-06-05T04:34:50.372Z,77.50
2023-06-05T04:37:18.826Z,77.44
2023-06-05T04:39:47.266Z,77.47
2023-06-05T04:42:15.980Z,77.27
2023-06-05T04:44:44.842Z,77.34
2023-06-05T04:47:13.055Z,77.33
2023-06-05T04:49:41.212Z,77.00
2023-06-05T04:52:10.022Z,76.77
2023-06-05T04:54:38.577Z,77.19
2023-06-05T04:57:06.833Z,77.14
2023-06-05T04:59:35.158Z,76.96
2023-06-05T05:02:04.353Z,76.96
2023-06-05T05:04:33.906Z,77.12
2023-06-05T05:07:02.522Z,76.97
2023-06-05T05:09:34.988Z,76.71
2023-06-05T05:12:03.363Z,76.80
2023-06-05T05:14:32.452Z,76.87
2023-06-05T05:17:00.894Z,76.78
2023-06-05T05:19:29.484Z,76.70
2023-06-05T05:21:58.808Z,76.55
2023-06-05T05:24:27.910Z,76.35
2023-06-05T05:26:56.158Z,76.23
2023-06-05T05:29:24.953Z,76.54
2023-06-05T05:31:53.312Z,76.25
2023-06-05T05:34:22.449Z,76.22
2023-06-05T05:36:50.985Z,76.14
2023-06-05T05:39:19.548Z,76.10
2023-06-05T05:41:50.301Z,75.90
2023-06-05T05:44:18.546Z,75.99
2023-06-05T05:46:47.768Z,75.92
2023-06-05T05:49:15.962Z,75.80
2023-06-05T05:51:44.529Z,75.59
2023-06-05T05:54:13.078Z,75.33
2023-06-05T05:56:41.266Z,75.13
2023-06-05T05:59:09.744Z,75.02
2023-06-05T06:01:38.175Z,74.64
2023-06-05T06:04:06.519Z,74.75
2023-06-05T06:06:34.828Z,74.65
2023-06-05T06:09:03.120Z,74.68
2023-06-05T06:11:31.443Z,74.40
2023-06-05T06:13:59.550Z,74.46
2023-06-05T06:16:27.960Z,74.18
2023-06-05T06:18:58.597Z,73.87
2023-06-05T06:21:27.147Z,73.57
2023-06-05T06:23:55.957Z,73.61
2023-06-05T06:26:25.060Z,73.52
2023-06-05T06:28:53.707Z,73.22
2023-06-05T06:31:22.219Z,72.83
2023-06-05T06:33:50.507Z,72.75
2023-06-05T06:36:19.326Z,72.58
2023-06-05T06:38:47.633Z,72.31
2023-06-05T06:41:16.199Z,72.27
2023-06-05T06:43:44.674Z,71.78
2023-06-05T06:46:13.469Z,71.91
2023-06-05T06:48:41.756Z,71.48
2023-06-05T06:51:10.310Z,71.09
2023-06-05T06:53:39.410Z,70.95
2023-06-05T06:56:08.660Z,70.38
2023-06-05T06:58:37.484Z,70.48
2023-06-05T07:01:05.772Z,70.54
2023-06-05T07:03:34.849Z,70.77
2023-06-05T07:06:07.085Z,70.91
2023-06-05T07:08:35.560Z,70.78
2023-06-05T07:11:03.725Z,70.67
2023-06-05T07:13:32.002Z,70.32
2023-06-05T07:16:00.314Z,70.43
2023-06-05T07:18:29.972Z,70.45
2023-06-05T07:21:00.052Z,70.45
2023-06-05T07:23:28.381Z,69.63
2023-06-05T07:25:56.723Z,69.51
2023-06-05T07:28:25.205Z,69.24
2023-06-05T07:30:53.328Z,68.76
2023-06-05T07:33:29.927Z,68.69
2023-06-05T07:36:00.822Z,68.41
2023-06-05T07:38:29.824Z,67.92
2023-06-05T07:40:58.107Z,67.34
2023-06-05T07:43:27.328Z,67.45
2023-06-05T07:45:55.844Z,67.00
2023-06-05T07:48:24.100Z,67.12
2023-06-05T07:50:52.301Z,67.45
2023-06-05T07:53:20.537Z,67.44
2023-06-05T07:55:49.458Z,67.62
2023-06-05T07:58:17.960Z,67.85
2023-06-05T08:00:46.062Z,68.37
2023-06-05T08:03:18.027Z,68.52
2023-06-05T08:05:48.121Z,68.70
2023-06-05T08:08:16.481Z,68.80
2023-06-05T08:10:45.934Z,68.63
2023-06-05T08:13:14.204Z,68.78
2023-06-05T08:15:44.652Z,68.17
2023-06-05T08:18:13.256Z,67.80
2023-06-05T08:20:41.572Z,67.46
2023-06-05T08:23:11.608Z,67.68
2023-06-05T08:25:39.921Z,67.31
2023-06-05T08:28:08.423Z,67.06
2023-06-05T08:30:36.617Z,67.23
2023-06-05T08:33:05.533Z,66.78
2023-06-05T08:35:33.664Z,66.83
2023-06-05T08:38:01.988Z,66.77
2023-06-05T08:40:30.728Z,66.47
2023-06-05T08:43:01.757Z,66.04
2023-06-05T08:45:32.925Z,66.37
2023-06-05T08:48:02.547Z,66.20
2023-06-05T08:50:32.002Z,65.99
2023-06-05T08:53:01.463Z,65.58
2023-06-05T08:55:31.160Z,64.62
2023-06-05T08:58:00.292Z,63.82
2023-06-05T09:00:28.714Z,64.07
2023-06-05T09:02:57.116Z,64.92
2023-06-05T09:05:26.513Z,65.37
2023-06-05T09:07:55.338Z,65.38
2023-06-05T09:10:29.288Z,65.29
2023-06-05T09:13:02.473Z,65.03
2023-06-05T09:15:35.754Z,64.76
2023-06-05T09:18:10.337Z,63.87
2023-06-05T09:20:41.302Z,64.25
2023-06-05T09:23:30.260Z,63.18
2023-06-05T09:26:01.681Z,63.21
2023-06-05T09:28:30.364Z,63.03
2023-06-05T09:31:03.629Z,62.37
2023-06-05T09:33:34.907Z,62.06
2023-06-05T09:36:09.244Z,61.63
2023-06-05T09:38:40.138Z,61.74
2023-06-05T09:41:11.445Z,60.82
2023-06-05T09:43:40.446Z,60.73
2023-06-05T09:46:09.782Z,60.84
2023-06-05T09:48:43.200Z,60.58
2023-06-05T09:51:14.215Z,60.48
2023-06-05T09:53:51.304Z,60.62
2023-06-05T09:56:23.131Z,60.90
2023-06-05T09:58:53.112Z,61.00
2023-06-05T10:01:24.828Z,60.27
2023-06-05T10:04:03.018Z,60.34
2023-06-05T10:06:33.601Z,59.96
2023-06-05T10:09:03.381Z,59.91
2023-06-05T10:11:31.889Z,59.76
2023-06-05T10:14:01.217Z,60.16
2023-06-05T10:16:31.122Z,60.31
2023-06-05T10:19:00.911Z,60.13
2023-06-05T10:21:29.464Z,59.68
2023-06-05T10:24:08.080Z,58.70
2023-06-05T10:27:10.922Z,58.89
2023-06-05T10:30:07.796Z,58.55
2023-06-05T10:33:10.643Z,57.92
2023-06-05T10:36:09.624Z,57.52
2023-06-05T10:38:41.666Z,57.48
2023-06-05T10:41:10.463Z,57.97
2023-06-05T10:43:48.940Z,58.87
2023-06-05T10:46:31.111Z,59.04
2023-06-05T10:49:18.646Z,59.00
2023-06-05T10:51:51.484Z,59.55
2023-06-05T10:54:25.865Z,60.12
2023-06-05T10:56:57.203Z,59.68
2023-06-05T10:59:46.483Z,59.67
2023-06-05T11:02:17.937Z,59.65
2023-06-05T11:04:50.109Z,59.77
2023-06-05T11:07:26.599Z,59.36
2023-06-05T11:10:12.945Z,59.34
2023-06-05T11:12:45.356Z,58.99
2023-06-05T11:15:15.910Z,58.78
2023-06-05T11:17:46.971Z,58.15
2023-06-05T11:20:25.055Z,57.89
2023-06-05T11:22:56.293Z,58.22
2023-06-05T11:25:28.152Z,58.27
2023-06-05T11:28:03.970Z,58.07
2023-06-05T11:30:47.090Z,56.34
2023-06-05T11:33:20.173Z,56.48
2023-06-05T11:35:52.117Z,57.30
2023-06-05T11:38:24.085Z,57.14
2023-06-05T11:40:56.189Z,56.03
2023-06-05T11:43:25.689Z,55.83
2023-06-05T11:45:58.934Z,54.99
2023-06-05T11:48:27.534Z,53.53
2023-06-05T11:51:01.634Z,53.66
2023-06-05T11:53:32.596Z,52.17
2023-06-05T11:56:01.535Z,48.72
2023-06-05T11:58:31.699Z,49.23
2023-06-05T12:01:20.500Z,49.09
2023-06-05T12:03:50.641Z,50.04
2023-06-05T12:06:19.192Z,50.83
2023-06-05T12:08:47.438Z,52.13
2023-06-05T12:11:24.033Z,51.92
2023-06-05T12:13:57.226Z,52.88
2023-06-05T12:16:35.937Z,53.26
2023-06-05T12:19:16.568Z,53.33
2023-06-05T12:21:47.350Z,53.32
2023-06-05T12:24:16.001Z,53.18
2023-06-05T12:26:51.317Z,53.33
2023-06-05T12:29:20.348Z,52.24
2023-06-05T12:31:49.436Z,52.66
2023-06-05T12:34:17.837Z,53.10
2023-06-05T12:36:46.546Z,53.23
2023-06-05T12:39:15.096Z,53.47
2023-06-05T12:41:43.826Z,53.10
2023-06-05T12:44:12.215Z,51.98
2023-06-05T12:46:40.375Z,51.69
2023-06-05T12:49:08.670Z,52.58
2023-06-05T12:51:37.400Z,52.46
2023-06-05T12:54:06.020Z,52.24
2023-06-05T12:56:34.404Z,52.49
2023-06-05T12:59:02.996Z,52.03
2023-06-05T13:01:31.839Z,51.88
2023-06-05T13:04:00.709Z,50.98
2023-06-05T13:06:29.356Z,50.81
2023-06-05T13:08:59.367Z,50.51
2023-06-05T13:11:27.604Z,50.98
2023-06-05T13:13:56.235Z,51.11
2023-06-05T13:16:24.539Z,51.35
2023-06-05T13:18:52.733Z,50.96
2023-06-05T13:21:20.997Z,51.34
2023-06-05T13:23:49.378Z,51.11
2023-06-05T13:26:17.682Z,50.91
2023-06-05T13:28:46.268Z,51.24
2023-06-05T13:31:14.839Z,51.93
2023-06-05T13:33:43.060Z,51.64
2023-06-05T13:36:11.504Z,52.14
2023-06-05T13:38:40.019Z,52.66
2023-06-05T13:41:08.546Z,53.33
2023-06-05T13:43:36.915Z,52.78
2023-06-05T13:46:05.402Z,52.28
2023-06-05T13:48:34.325Z,52.55
2023-06-05T13:51:03.278Z,52.83
2023-06-05T13:53:32.189Z,52.87
2023-06-05T13:56:00.463Z,52.81
2023-06-05T13:58:28.985Z,51.52
2023-06-05T14:00:57.627Z,51.81
2023-06-05T14:03:26.549Z,52.44
2023-06-05T14:05:54.926Z,53.17
2023-06-05T14:08:23.061Z,53.99
2023-06-05T14:10:51.400Z,54.74
2023-06-05T14:13:19.736Z,55.44
2023-06-05T14:15:47.963Z,54.48
2023-06-05T14:18:16.221Z,54.49
2023-06-05T14:20:44.715Z,55.06
2023-06-05T14:23:12.970Z,55.98
2023-06-05T14:25:41.212Z,56.27
2023-06-05T14:28:09.575Z,56.41
2023-06-05T14:30:39.182Z,56.60
2023-06-05T14:33:08.160Z,56.76
2023-06-05T14:35:36.934Z,56.41
2023-06-05T14:38:08.100Z,56.81
2023-06-05T14:40:36.617Z,57.35
2023-06-05T14:43:05.062Z,57.81
2023-06-05T14:45:33.371Z,58.20
2023-06-05T14:48:01.659Z,58.27
2023-06-05T14:50:30.353Z,58.33
2023-06-05T14:52:59.500Z,58.77
2023-06-05T14:55:28.554Z,58.62
2023-06-05T14:57:58.890Z,58.93
2023-06-05T15:00:27.365Z,59.42
2023-06-05T15:02:55.795Z,59.49
2023-06-05T15:05:24.961Z,59.87
2023-06-05T15:07:54.410Z,60.22
2023-06-05T15:10:22.851Z,60.53
2023-06-05T15:12:50.999Z,60.66
2023-06-05T15:15:21.379Z,60.82
2023-06-05T15:17:50.822Z,60.80
2023-06-05T15:20:23.259Z,61.01
2023-06-05T15:23:11.271Z,61.30
2023-06-05T15:25:43.026Z,61.89
2023-06-05T15:28:11.708Z,62.06
2023-06-05T15:30:39.907Z,62.28
2023-06-05T15:33:08.282Z,62.14
2023-06-05T15:35:36.655Z,62.25
2023-06-05T15:38:04.846Z,62.29
2023-06-05T15:40:33.021Z,62.38
2023-06-05T15:43:06.642Z,62.42
2023-06-05T15:45:40.817Z,62.81
2023-06-05T15:48:09.614Z,62.88
2023-06-05T15:50:38.354Z,62.86
2023-06-05T15:53:07.980Z,62.37
2023-06-05T15:55:36.436Z,62.41
2023-06-05T15:58:09.588Z,62.68
2023-06-05T16:00:38.126Z,62.52
2023-06-05T16:03:06.649Z,62.36
2023-06-05T16:05:35.462Z,62.53
2023-06-05T16:08:04.116Z,62.69
2023-06-05T16:10:32.285Z,62.77
2023-06-05T16:13:00.569Z,62.12
2023-06-05T16:15:28.805Z,61.22
2023-06-05T16:17:57.160Z,61.54
2023-06-05T16:20:26.577Z,61.66
2023-06-05T16:22:55.081Z,61.59
2023-06-05T16:25:23.448Z,61.57
2023-06-05T16:27:51.703Z,61.36
2023-06-05T16:30:19.936Z,61.24
2023-06-05T16:32:48.222Z,61.67
2023-06-05T16:38:03.549Z,61.62
2023-06-05T16:40:31.804Z,61.45
2023-06-05T16:43:00.419Z,61.22
2023-06-05T16:45:28.712Z,61.40
2023-06-05T16:47:56.908Z,61.56
2023-06-05T16:50:25.109Z,61.76
2023-06-05T16:52:54.315Z,62.01
2023-06-05T16:55:22.470Z,62.13
2023-06-05T16:57:50.665Z,62.32
2023-06-05T17:00:19.012Z,62.45
2023-06-05T17:02:47.317Z,63.02
2023-06-05T17:05:16.051Z,63.23
2023-06-05T17:07:45.160Z,63.18
2023-06-05T17:10:13.706Z,63.09
2023-06-05T17:12:42.069Z,62.78
2023-06-05T17:15:12.892Z,63.61
2023-06-05T17:17:41.678Z,63.32
2023-06-05T17:20:10.868Z,63.15
2023-06-05T17:22:39.503Z,63.62
2023-06-05T17:25:08.108Z,63.22
2023-06-05T17:27:38.303Z,63.16
2023-06-05T17:30:08.318Z,63.14
2023-06-05T17:32:36.688Z,62.38
2023-06-05T17:35:06.207Z,62.21
2023-06-05T17:37:35.773Z,62.11
2023-06-05T17:40:04.367Z,62.80
2023-06-05T17:42:33.156Z,63.19
2023-06-05T17:45:01.418Z,63.45
2023-06-05T17:47:29.778Z,63.72
2023-06-05T17:49:58.113Z,63.48
2023-06-05T17:52:27.002Z,63.30
2023-06-05T17:54:55.248Z,63.41
2023-06-05T17:57:23.573Z,63.45
2023-06-05T17:59:52.348Z,63.93
2023-06-05T18:02:20.988Z,64.30
2023-06-05T18:04:49.404Z,64.43
2023-06-05T18:07:17.892Z,64.25
2023-06-05T18:09:46.236Z,64.25
2023-06-05T18:12:14.405Z,65.04
2023-06-05T18:14:43.005Z,64.85
2023-06-05T18:17:11.893Z,65.08
2023-06-05T18:19:40.031Z,65.50
2023-06-05T18:22:08.398Z,65.32
2023-06-05T18:24:36.646Z,65.74
2023-06-05T18:27:05.531Z,65.49
2023-06-05T18:29:34.674Z,66.19
2023-06-05T18:32:03.294Z,66.15
2023-06-05T18:34:32.116Z,66.34
2023-06-05T18:37:00.543Z,67.05
2023-06-05T18:39:29.299Z,66.44
2023-06-05T18:41:57.477Z,66.72
2023-06-05T18:44:26.240Z,66.64
2023-06-05T18:46:54.764Z,66.62
2023-06-05T18:49:23.039Z,66.59
2023-06-05T18:51:51.238Z,66.98
2023-06-05T18:54:19.368Z,67.23
2023-06-05T18:56:49.448Z,67.72
2023-06-05T18:59:19.652Z,67.94
2023-06-05T19:01:48.296Z,67.68
2023-06-05T19:04:16.836Z,68.13
2023-06-05T19:06:45.321Z,68.36
2023-06-05T19:09:13.692Z,68.72
2023-06-05T19:11:41.876Z,68.39
2023-06-05T19:14:10.177Z,69.29
2023-06-05T19:16:38.677Z,69.22
2023-06-05T19:19:07.146Z,68.97
2023-06-05T19:21:35.946Z,69.31
2023-06-05T19:24:04.368Z,69.53
2023-06-05T19:26:33.053Z,69.37
2023-06-05T19:29:01.260Z,69.98
2023-06-05T19:31:29.780Z,69.69
2023-06-05T19:33:58.462Z,70.22
2023-06-05T19:36:27.259Z,70.19
2023-06-05T19:38:56.105Z,70.38
2023-06-05T19:41:27.498Z,70.74
2023-06-05T19:43:56.299Z,70.97
2023-06-05T19:46:24.468Z,71.70
2023-06-05T19:48:53.370Z,72.06
2023-06-05T19:51:22.860Z,72.22
2023-06-05T19:53:51.509Z,71.97
2023-06-05T19:56:20.168Z,71.73
2023-06-05T19:58:48.562Z,72.12
2023-06-05T20:01:17.189Z,72.03
2023-06-05T20:03:50.585Z,72.06
2023-06-05T20:06:20.040Z,72.35
2023-06-05T20:08:48.432Z,72.00
2023-06-05T20:11:17.018Z,72.60
2023-06-05T20:13:45.907Z,72.76
2023-06-05T20:16:14.242Z,72.96
2023-06-05T20:18:44.124Z,72.70
2023-06-05T20:21:12.966Z,73.01
2023-06-05T20:23:41.522Z,72.98
2023-06-05T20:26:11.028Z,73.29
2023-06-05T20:28:41.890Z,73.24
2023-06-05T20:31:11.056Z,72.90
2023-06-05T20:33:39.843Z,73.11
2023-06-05T20:36:11.881Z,73.87
2023-06-05T20:38:40.761Z,73.70
2023-06-05T20:41:10.539Z,73.74
2023-06-05T20:43:39.775Z,73.78
2023-06-05T20:46:08.193Z,73.92
2023-06-05T20:48:36.911Z,74.09
2023-06-05T20:51:05.815Z,73.76
2023-06-05T20:53:38.642Z,74.17
2023-06-05T20:56:06.919Z,74.19
2023-06-05T20:58:35.315Z,73.89
2023-06-05T21:01:03.639Z,74.03
2023-06-05T21:03:32.068Z,74.14
2023-06-05T21:06:00.421Z,74.30
2023-06-05T21:08:30.242Z,74.22
2023-06-05T21:10:58.467Z,74.23
2023-06-05T21:13:26.708Z,74.17
2023-06-05T21:15:55.624Z,74.18
2023-06-05T21:18:24.530Z,74.24
2023-06-05T21:20:55.630Z,74.33
2023-06-05T21:23:24.087Z,74.33
2023-06-05T21:25:52.800Z,74.46
2023-06-05T21:28:21.074Z,74.27
2023-06-05T21:30:50.165Z,74.21
2023-06-05T21:33:20.589Z,74.23
2023-06-05T21:35:49.770Z,74.35
2023-06-05T21:38:18.992Z,74.54
2023-06-05T21:40:48.286Z,74.83
2023-06-05T21:43:17.135Z,74.67
2023-06-05T21:45:45.691Z,75.00
2023-06-05T21:48:13.909Z,75.01
2023-06-05T21:50:42.113Z,74.98
2023-06-05T21:53:10.663Z,74.89
2023-06-05T21:55:39.449Z,74.62
2023-06-05T21:58:07.813Z,74.80
2023-06-05T22:00:36.130Z,75.17
2023-06-05T22:03:04.751Z,75.18
2023-06-05T22:05:33.646Z,75.06
2023-06-05T22:08:02.799Z,75.05
2023-06-05T22:10:31.297Z,75.07
2023-06-05T22:12:59.561Z,75.20
2023-06-05T22:15:30.986Z,75.11
2023-06-05T22:17:59.385Z,75.25
2023-06-05T22:20:28.416Z,75.25
2023-06-05T22:22:58.239Z,75.34
2023-06-05T22:25:34.473Z,75.43
2023-06-05T22:28:08.498Z,75.43
2023-06-05T22:30:37.213Z,75.43
2023-06-05T22:33:05.482Z,75.39
2023-06-05T22:35:36.981Z,75.51
2023-06-05T22:38:05.621Z,75.59
2023-06-05T22:40:34.706Z,75.78
2023-06-05T22:43:04.003Z,75.74
2023-06-05T22:45:33.127Z,75.87
2023-06-05T22:48:02.167Z,75.85
2023-06-05T22:50:31.614Z,75.85
2023-06-05T22:53:00.774Z,76.00
2023-06-05T22:55:29.742Z,76.03
2023-06-05T22:58:00.592Z,76.06
2023-06-05T23:00:29.406Z,76.12
2023-06-05T23:02:58.673Z,76.09
2023-06-05T23:05:27.016Z,75.98
2023-06-05T23:07:55.624Z,76.06
2023-06-05T23:10:24.973Z,76.11
2023-06-05T23:12:53.777Z,76.16
2023-06-05T23:17:49.098Z,76.12
2023-06-05T23:20:17.670Z,76.10
2023-06-05T23:22:47.021Z,76.10
2023-06-05T23:25:15.960Z,76.06
2023-06-05T23:27:45.196Z,76.07
2023-06-05T23:30:14.029Z,75.94
2023-06-05T23:32:42.518Z,76.06
2023-06-05T23:35:10.754Z,75.90
2023-06-05T23:37:39.510Z,76.15
2023-06-05T23:40:08.736Z,75.69
2023-06-05T23:42:38.450Z,75.55
2023-06-05T23:45:08.984Z,75.64
2023-06-05T23:47:38.321Z,75.72
2023-06-05T23:50:28.630Z,75.55
2023-06-05T23:52:57.419Z,75.56
2023-06-05T23:55:27.080Z,75.44
2023-06-05T23:57:55.945Z,75.52
